Time;durP1;ratioP1;P1;durP2;ratioP2;P2;SDS_P1;SDS_P2;PMS_P1;PMS_P2;Temp;Humidity;BMP_temperature;BMP_pressure;BME280_temperature;BME280_humidity;BME280_pressure;Samples;Min_cycle;Max_cycle;Signal;HPM_P1;HPM_P2
2023/06/06 00:01:54;;;;;;;2.72;2.53;;;20.10;99.40;;;;;;5092295;28;20774;-62
2023/06/06 00:04:23;;;;;;;3.08;2.70;;;20.00;99.90;;;;;;5100482;28;20261;-61
2023/06/06 00:06:52;;;;;;;3.72;2.75;;;20.00;99.90;;;;;;5092417;28;20207;-61
2023/06/06 00:09:20;;;;;;;6.47;3.08;;;19.90;99.90;;;;;;5092227;28;20224;-61
2023/06/06 00:11:48;;;;;;;6.60;2.80;;;19.80;99.90;;;;;;5092359;28;20200;-60
2023/06/06 00:14:18;;;;;;;4.20;2.95;;;19.80;99.90;;;;;;5098419;28;20287;-61
2023/06/06 00:16:49;;;;;;;3.38;2.97;;;19.70;99.90;;;;;;5104094;28;20199;-61
2023/06/06 00:19:20;;;;;;;3.30;3.03;;;19.60;99.90;;;;;;5105129;28;20308;-61
2023/06/06 00:21:50;;;;;;;4.78;3.13;;;19.60;99.90;;;;;;5092156;28;20219;-61
2023/06/06 00:24:18;;;;;;;5.85;3.20;;;19.50;99.90;;;;;;5092240;28;20661;-62
2023/06/06 00:26:46;;;;;;;3.58;2.90;;;19.40;99.90;;;;;;5091852;28;20646;-61
2023/06/06 00:29:14;;;;;;;2.75;2.55;;;19.40;99.90;;;;;;5092015;28;20342;-62
2023/06/06 00:31:42;;;;;;;4.70;2.95;;;19.30;99.90;;;;;;5092209;28;20240;-61
2023/06/06 00:34:10;;;;;;;5.82;2.63;;;19.30;99.90;;;;;;5092134;28;20773;-61
2023/06/06 00:36:37;;;;;;;3.65;2.70;;;19.30;99.90;;;;;;5091716;28;20691;-59
2023/06/06 00:39:07;;;;;;;6.35;2.88;;;19.20;99.90;;;;;;5092020;28;20208;-61
2023/06/06 00:41:34;;;;;;;4.18;2.80;;;19.10;99.90;;;;;;5091750;28;20294;-61
2023/06/06 00:44:02;;;;;;;6.05;2.83;;;19.00;99.90;;;;;;5096844;28;20208;-61
2023/06/06 00:46:30;;;;;;;4.97;2.75;;;19.00;99.90;;;;;;5100225;28;20238;-61
2023/06/06 00:48:58;;;;;;;2.90;2.65;;;18.90;99.90;;;;;;5092914;28;20219;-60
2023/06/06 00:51:26;;;;;;;5.72;2.75;;;18.90;99.90;;;;;;5100345;28;20192;-59
2023/06/06 00:53:54;;;;;;;4.72;3.13;;;18.80;99.90;;;;;;5091559;28;20277;-61
2023/06/06 00:56:28;;;;;;;3.38;3.08;;;18.80;99.90;;;;;;5098842;28;20282;-61
2023/06/06 00:58:57;;;;;;;6.25;2.80;;;18.70;99.90;;;;;;5100209;28;20253;-60
2023/06/06 01:01:25;;;;;;;3.83;2.88;;;18.60;99.90;;;;;;5091908;28;20204;-62
2023/06/06 01:03:56;;;;;;;5.95;3.13;;;18.60;99.90;;;;;;5091527;28;20263;-62
2023/06/06 01:06:24;;;;;;;3.42;2.88;;;18.50;99.90;;;;;;5091381;28;20211;-61
2023/06/06 01:08:52;;;;;;;3.67;3.08;;;18.40;99.90;;;;;;5091522;28;20271;-61
2023/06/06 01:11:22;;;;;;;3.15;2.78;;;18.40;99.90;;;;;;5092008;28;20231;-60
2023/06/06 01:13:54;;;;;;;4.63;2.80;;;18.40;99.90;;;;;;5091561;28;20262;-62
2023/06/06 01:16:22;;;;;;;2.90;2.65;;;18.30;99.90;;;;;;5091520;28;20259;-61
2023/06/06 01:18:51;;;;;;;3.28;3.05;;;18.30;99.90;;;;;;5091428;28;20249;-60
2023/06/06 01:21:19;;;;;;;3.65;2.80;;;18.30;99.90;;;;;;5091510;28;20204;-60
2023/06/06 01:23:49;;;;;;;3.25;2.83;;;18.20;99.90;;;;;;5091622;28;20224;-61
2023/06/06 01:26:17;;;;;;;5.85;2.80;;;18.20;99.90;;;;;;5091643;28;20231;-60
2023/06/06 01:28:45;;;;;;;4.57;2.75;;;18.10;99.90;;;;;;5091527;28;20224;-60
2023/06/06 01:31:15;;;;;;;3.67;2.70;;;18.10;99.90;;;;;;5091779;28;20209;-60
2023/06/06 01:33:45;;;;;;;2.97;2.78;;;18.00;99.90;;;;;;5091249;28;20235;-61
2023/06/06 01:36:16;;;;;;;3.53;2.58;;;17.90;99.90;;;;;;5091201;28;20273;-61
2023/06/06 01:38:45;;;;;;;4.07;2.97;;;17.90;99.90;;;;;;5091367;28;20200;-61
2023/06/06 01:41:16;;;;;;;3.13;2.80;;;17.90;99.90;;;;;;5091619;28;20253;-60
2023/06/06 01:43:44;;;;;;;5.60;2.65;;;17.80;99.90;;;;;;5091129;28;20239;-59
2023/06/06 01:46:12;;;;;;;3.72;2.75;;;17.80;99.90;;;;;;5091128;28;20287;-61
2023/06/06 01:48:40;;;;;;;5.03;3.13;;;17.70;99.90;;;;;;5091394;28;20585;-61
2023/06/06 01:51:08;;;;;;;3.80;3.20;;;17.70;99.90;;;;;;5091498;28;20204;-59
2023/06/06 01:53:36;;;;;;;3.10;2.85;;;17.70;99.90;;;;;;5091263;28;20231;-61
2023/06/06 01:56:05;;;;;;;6.03;2.72;;;17.60;99.90;;;;;;5093556;28;20298;-60
2023/06/06 01:58:34;;;;;;;3.53;2.85;;;17.50;99.90;;;;;;5094839;28;20683;-60
2023/06/06 02:01:03;;;;;;;5.07;3.00;;;17.50;99.90;;;;;;5094785;28;20227;-59
2023/06/06 02:03:31;;;;;;;3.47;2.80;;;17.50;99.90;;;;;;5094856;28;20227;-61
2023/06/06 02:06:01;;;;;;;4.30;2.72;;;17.50;99.90;;;;;;5094644;28;20200;-61
2023/06/06 02:08:29;;;;;;;5.07;2.85;;;17.50;99.90;;;;;;5094634;28;20287;-62
2023/06/06 02:10:57;;;;;;;3.40;3.10;;;17.40;99.90;;;;;;5094362;28;20682;-60
2023/06/06 02:13:25;;;;;;;4.07;2.72;;;17.40;99.90;;;;;;5094421;28;20259;-60
2023/06/06 02:15:55;;;;;;;6.82;3.35;;;17.30;99.90;;;;;;5094419;28;20229;-61
2023/06/06 02:18:22;;;;;;;5.30;2.97;;;17.30;99.90;;;;;;5094554;28;20699;-61
2023/06/06 02:20:50;;;;;;;4.78;3.38;;;17.20;99.90;;;;;;5074352;28;20683;-60
2023/06/06 02:23:18;;;;;;;5.93;3.13;;;17.10;99.90;;;;;;5074158;28;20641;-60
2023/06/06 02:25:46;;;;;;;3.25;3.00;;;17.10;99.90;;;;;;5073889;28;20283;-60
2023/06/06 02:28:15;;;;;;;6.50;3.58;;;17.10;99.90;;;;;;5074319;28;20287;-59
2023/06/06 02:30:43;;;;;;;4.18;3.08;;;17.00;99.90;;;;;;5074381;28;20269;-60
2023/06/06 02:33:12;;;;;;;3.83;3.30;;;16.90;99.90;;;;;;5073999;28;20228;-61
2023/06/06 02:35:40;;;;;;;3.30;2.95;;;16.90;99.90;;;;;;5073827;28;20239;-60
2023/06/06 02:38:08;;;;;;;4.78;3.20;;;16.90;99.90;;;;;;5073849;28;20658;-61
2023/06/06 02:40:36;;;;;;;5.63;3.17;;;16.90;99.90;;;;;;5073849;28;20651;-61
2023/06/06 02:43:04;;;;;;;3.72;2.70;;;16.80;99.90;;;;;;5073690;28;20268;-62
2023/06/06 02:45:31;;;;;;;7.85;2.90;;;16.80;99.90;;;;;;5073853;28;20292;-61
2023/06/06 02:48:00;;;;;;;5.68;3.55;;;16.80;99.90;;;;;;5073778;28;20688;-59
2023/06/06 02:50:31;;;;;;;4.50;3.15;;;16.70;99.90;;;;;;5073564;28;20974;-60
2023/06/06 02:53:02;;;;;;;5.30;3.15;;;16.70;99.90;;;;;;5073535;28;20607;-61
2023/06/06 02:55:30;;;;;;;5.85;3.30;;;16.70;99.90;;;;;;5073599;28;20229;-60
2023/06/06 02:57:58;;;;;;;3.92;3.08;;;16.70;99.90;;;;;;5073729;28;20209;-61
2023/06/06 03:00:26;;;;;;;3.25;2.85;;;16.70;99.90;;;;;;5073710;28;20277;-61
2023/06/06 03:02:54;;;;;;;7.32;3.92;;;16.70;99.90;;;;;;5086884;28;20258;-60
2023/06/06 03:05:28;;;;;;;5.05;2.83;;;16.70;99.90;;;;;;5104679;28;20203;-60
2023/06/06 03:07:58;;;;;;;6.43;3.17;;;16.70;99.90;;;;;;5112430;28;20198;-59
2023/06/06 03:10:26;;;;;;;3.80;3.45;;;16.70;99.90;;;;;;5113796;28;20224;-61
2023/06/06 03:12:54;;;;;;;6.63;3.15;;;16.70;99.90;;;;;;5113859;28;20679;-61
2023/06/06 03:15:22;;;;;;;4.57;3.28;;;16.70;99.90;;;;;;5113606;28;20239;-59
2023/06/06 03:17:50;;;;;;;3.45;3.15;;;16.70;99.90;;;;;;5113027;28;20207;-61
2023/06/06 03:20:18;;;;;;;7.65;3.10;;;16.70;99.90;;;;;;5097709;28;20196;-60
2023/06/06 03:22:46;;;;;;;3.97;3.38;;;16.70;99.90;;;;;;5093274;28;20231;-61
2023/06/06 03:25:15;;;;;;;4.63;3.05;;;16.70;99.90;;;;;;5093265;28;20254;-60
2023/06/06 03:27:43;;;;;;;7.35;3.22;;;16.70;99.90;;;;;;5093252;28;20218;-61
2023/06/06 03:30:12;;;;;;;5.68;3.78;;;16.70;99.90;;;;;;5092821;28;20735;-59
2023/06/06 03:32:40;;;;;;;6.25;2.97;;;16.70;99.90;;;;;;5093228;28;20711;-61
2023/06/06 03:35:09;;;;;;;4.35;3.33;;;16.60;99.90;;;;;;5092805;28;20306;-60
2023/06/06 03:37:36;;;;;;;4.43;4.07;;;16.60;99.90;;;;;;5092933;28;20254;-61
2023/06/06 03:40:05;;;;;;;5.53;3.03;;;16.60;99.90;;;;;;5093090;28;20344;-61
2023/06/06 03:42:35;;;;;;;5.85;3.15;;;16.60;99.90;;;;;;5092918;28;20270;-62
2023/06/06 03:45:03;;;;;;;4.63;2.90;;;16.60;99.90;;;;;;5092475;28;20243;-61
2023/06/06 03:47:31;;;;;;;7.10;3.42;;;16.60;99.90;;;;;;5093084;28;20308;-59
2023/06/06 03:49:59;;;;;;;7.15;3.42;;;16.60;99.90;;;;;;5092761;28;20256;-61
2023/06/06 03:52:27;;;;;;;5.05;3.45;;;16.60;99.90;;;;;;5092875;28;20278;-59
2023/06/06 03:54:55;;;;;;;7.80;3.22;;;16.60;99.90;;;;;;5092412;28;20742;-59
2023/06/06 03:57:23;;;;;;;4.38;3.08;;;16.60;99.90;;;;;;5092663;28;20200;-60
2023/06/06 03:59:52;;;;;;;3.40;3.10;;;16.60;99.90;;;;;;5092745;28;20196;-59
2023/06/06 04:02:20;;;;;;;4.50;3.38;;;16.70;99.90;;;;;;5092833;28;20227;-59
2023/06/06 04:04:50;;;;;;;5.03;3.38;;;16.70;99.90;;;;;;5092204;28;20207;-60
2023/06/06 04:07:18;;;;;;;6.15;3.30;;;16.70;99.90;;;;;;5092778;28;20200;-59
2023/06/06 04:09:46;;;;;;;7.18;3.20;;;16.70;99.90;;;;;;5092322;28;20220;-60
2023/06/06 04:12:14;;;;;;;3.30;3.10;;;16.70;99.90;;;;;;5092380;28;20746;-60
2023/06/06 04:14:42;;;;;;;5.85;3.47;;;16.80;99.90;;;;;;5092365;28;20208;-61
2023/06/06 04:17:11;;;;;;;4.07;3.22;;;16.80;99.90;;;;;;5092116;28;20687;-59
2023/06/06 04:19:39;;;;;;;3.63;3.33;;;16.90;99.90;;;;;;5092076;28;20204;-61
2023/06/06 04:22:07;;;;;;;4.22;2.90;;;16.90;99.90;;;;;;5092154;28;20224;-62
2023/06/06 04:24:35;;;;;;;6.00;3.30;;;17.00;99.90;;;;;;5091972;28;20311;-63
2023/06/06 04:27:04;;;;;;;3.60;2.60;;;17.10;99.90;;;;;;5091626;28;20295;-61
2023/06/06 04:29:33;;;;;;;5.25;3.28;;;17.20;99.90;;;;;;5092005;28;20238;-61
2023/06/06 04:32:01;;;;;;;9.20;3.08;;;17.20;99.90;;;;;;5092042;28;20224;-61
2023/06/06 04:34:31;;;;;;;4.18;2.88;;;17.20;99.90;;;;;;5091654;28;20245;-60
2023/06/06 04:37:03;;;;;;;5.03;3.53;;;17.30;99.90;;;;;;5091864;28;20240;-59
2023/06/06 04:39:32;;;;;;;6.10;3.30;;;17.30;99.90;;;;;;5092172;28;20203;-60
2023/06/06 04:42:00;;;;;;;8.75;3.72;;;17.30;99.90;;;;;;5091993;28;20220;-61
2023/06/06 04:44:28;;;;;;;6.47;3.80;;;17.40;99.90;;;;;;5091883;28;20254;-62
2023/06/06 04:47:00;;;;;;;4.20;3.13;;;17.40;99.90;;;;;;5091722;28;20209;-62
2023/06/06 04:49:28;;;;;;;6.78;3.40;;;17.40;99.90;;;;;;5091325;28;20632;-61
2023/06/06 04:51:59;;;;;;;5.05;3.28;;;17.40;99.90;;;;;;5091856;28;20224;-62
2023/06/06 04:54:27;;;;;;;3.70;3.20;;;17.40;99.90;;;;;;5091855;28;20208;-62
2023/06/06 04:56:57;;;;;;;12.20;3.45;;;17.50;99.90;;;;;;5091604;28;20200;-61
2023/06/06 04:59:27;;;;;;;3.65;2.83;;;17.50;99.90;;;;;;5091303;28;20235;-61
2023/06/06 05:01:56;;;;;;;3.38;3.08;;;17.50;99.90;;;;;;5091631;28;20259;-61
2023/06/06 05:04:24;;;;;;;6.70;3.22;;;17.50;99.90;;;;;;5091756;28;20210;-60
2023/06/06 05:06:53;;;;;;;8.80;3.38;;;17.60;99.90;;;;;;5091553;28;20230;-61
2023/06/06 05:09:22;;;;;;;3.85;3.28;;;17.60;99.90;;;;;;5091747;28;20204;-61
2023/06/06 05:11:52;;;;;;;5.05;3.63;;;17.60;99.90;;;;;;5091488;28;20254;-61
2023/06/06 05:14:23;;;;;;;7.45;3.30;;;17.70;99.90;;;;;;5091369;28;20304;-61
2023/06/06 05:16:52;;;;;;;3.53;3.22;;;17.70;99.90;;;;;;5091459;28;20257;-61
2023/06/06 05:19:20;;;;;;;4.45;3.40;;;17.80;99.90;;;;;;5091495;28;20706;-61
2023/06/06 05:21:48;;;;;;;4.00;3.08;;;17.80;99.90;;;;;;5091341;28;20918;-60
2023/06/06 05:24:16;;;;;;;5.22;3.15;;;17.90;99.90;;;;;;5091547;28;20235;-61
2023/06/06 05:26:45;;;;;;;4.07;3.20;;;17.90;99.90;;;;;;5091442;28;20242;-61
2023/06/06 05:29:13;;;;;;;9.30;2.95;;;18.00;99.90;;;;;;5091499;28;20263;-60
2023/06/06 05:31:41;;;;;;;5.53;3.40;;;18.00;99.90;;;;;;5095288;28;20289;-56
2023/06/06 05:34:09;;;;;;;9.70;3.40;;;18.10;99.90;;;;;;5095494;28;20273;-58
2023/06/06 05:36:37;;;;;;;3.50;3.20;;;18.20;99.90;;;;;;5095274;28;20640;-57
2023/06/06 05:39:05;;;;;;;8.65;4.60;;;18.20;99.90;;;;;;5095169;28;20638;-56
2023/06/06 05:41:33;;;;;;;4.32;2.92;;;18.30;99.90;;;;;;5095300;28;20216;-56
2023/06/06 05:44:02;;;;;;;8.10;3.15;;;18.30;99.90;;;;;;5095604;28;20266;-57
2023/06/06 05:46:30;;;;;;;4.70;3.08;;;18.40;99.90;;;;;;5095018;28;20658;-58
2023/06/06 05:48:58;;;;;;;6.95;3.15;;;18.40;99.90;;;;;;5094542;28;20207;-57
2023/06/06 05:51:26;;;;;;;5.22;2.75;;;18.50;99.90;;;;;;5102332;28;20706;-58
2023/06/06 05:53:54;;;;;;;7.90;3.22;;;18.40;99.90;;;;;;5106581;28;20300;-57
2023/06/06 05:56:40;;;;;;;4.75;3.17;;;18.50;99.90;;;;;;5103628;28;20203;-58
2023/06/06 05:59:09;;;;;;;6.15;3.42;;;18.50;99.90;;;;;;5103144;28;20667;-57
2023/06/06 06:01:39;;;;;;;9.80;3.25;;;18.60;99.90;;;;;;5099767;28;20566;-58
2023/06/06 06:04:08;;;;;;;4.38;2.72;;;18.60;99.90;;;;;;5104985;28;20283;-58
2023/06/06 06:06:37;;;;;;;5.93;3.10;;;18.70;99.90;;;;;;5110628;28;20199;-58
2023/06/06 06:09:05;;;;;;;8.15;3.40;;;18.70;99.90;;;;;;5099598;28;20215;-58
2023/06/06 06:11:33;;;;;;;6.68;3.30;;;18.80;99.90;;;;;;5106553;28;20211;-58
2023/06/06 06:14:01;;;;;;;3.55;3.25;;;18.80;99.90;;;;;;5106104;28;20290;-58
2023/06/06 06:16:31;;;;;;;4.80;3.22;;;18.80;99.90;;;;;;5094172;28;20232;-57
2023/06/06 06:18:58;;;;;;;4.57;3.30;;;18.90;99.90;;;;;;5099134;28;20196;-58
2023/06/06 06:21:26;;;;;;;6.90;3.55;;;18.90;99.90;;;;;;5100100;28;20208;-58
2023/06/06 06:23:54;;;;;;;6.00;3.10;;;19.00;99.90;;;;;;5103341;28;20247;-58
2023/06/06 06:26:22;;;;;;;3.35;3.15;;;19.00;99.90;;;;;;5103959;28;20200;-57
2023/06/06 06:28:54;;;;;;;3.85;3.20;;;19.10;99.90;;;;;;5100395;28;20269;-57
2023/06/06 06:31:22;;;;;;;4.15;3.65;;;19.20;99.90;;;;;;5091941;28;20242;-57
2023/06/06 06:33:52;;;;;;;3.72;3.40;;;19.30;99.90;;;;;;5100405;28;20232;-57
2023/06/06 06:36:20;;;;;;;3.47;2.92;;;19.30;99.90;;;;;;5100628;28;20204;-58
2023/06/06 06:38:48;;;;;;;10.55;3.28;;;19.40;99.90;;;;;;5102195;28;20625;-58
2023/06/06 06:41:16;;;;;;;4.85;3.05;;;19.50;99.90;;;;;;5101939;28;20241;-57
2023/06/06 06:43:44;;;;;;;5.13;3.10;;;19.50;99.90;;;;;;5095820;28;20301;-58
2023/06/06 06:46:12;;;;;;;7.60;3.95;;;19.60;99.90;;;;;;5094762;28;20235;-57
2023/06/06 06:48:44;;;;;;;5.90;3.42;;;19.70;99.90;;;;;;5105221;28;20246;-59
2023/06/06 06:51:14;;;;;;;3.47;2.70;;;19.80;99.90;;;;;;5105561;28;20223;-59
2023/06/06 06:53:42;;;;;;;4.53;2.78;;;19.90;99.90;;;;;;5102308;28;20699;-58
2023/06/06 06:56:10;;;;;;;4.57;3.40;;;20.00;99.90;;;;;;5106786;28;20204;-58
2023/06/06 06:58:38;;;;;;;3.92;3.00;;;20.10;99.90;;;;;;5104603;28;20200;-58
2023/06/06 07:01:06;;;;;;;5.35;3.08;;;20.30;99.90;;;;;;5098775;28;20236;-59
2023/06/06 07:03:35;;;;;;;7.32;3.33;;;20.30;99.90;;;;;;5105732;28;20299;-58
2023/06/06 07:06:03;;;;;;;4.38;3.05;;;20.40;99.90;;;;;;5112126;28;20242;-59
2023/06/06 07:08:33;;;;;;;4.32;3.28;;;20.40;99.90;;;;;;5114144;28;20308;-58
2023/06/06 07:11:02;;;;;;;6.47;3.30;;;20.50;99.90;;;;;;5113720;28;20670;-59
2023/06/06 07:13:31;;;;;;;4.30;3.20;;;20.60;99.90;;;;;;5113837;28;20227;-58
2023/06/06 07:15:59;;;;;;;8.90;3.47;;;20.70;99.90;;;;;;5113845;28;20207;-58
2023/06/06 07:18:27;;;;;;;7.18;2.92;;;20.70;99.90;;;;;;5113391;28;20199;-59
2023/06/06 07:20:55;;;;;;;6.30;3.08;;;20.70;99.90;;;;;;5093486;28;20234;-59
2023/06/06 07:23:23;;;;;;;5.72;2.97;;;20.80;99.90;;;;;;5093049;28;20718;-59
2023/06/06 07:25:52;;;;;;;14.43;3.38;;;20.80;99.90;;;;;;5093018;28;20679;-59
2023/06/06 07:28:20;;;;;;;7.45;3.53;;;20.80;99.90;;;;;;5093420;28;20231;-59
2023/06/06 07:30:48;;;;;;;9.40;3.40;;;20.90;99.90;;;;;;5093428;28;20262;-59
2023/06/06 07:33:16;;;;;;;7.07;3.10;;;21.00;99.90;;;;;;5093217;28;20232;-59
2023/06/06 07:35:44;;;;;;;3.97;3.40;;;21.10;99.90;;;;;;5092869;28;20295;-59
2023/06/06 07:38:12;;;;;;;6.85;3.15;;;21.20;99.90;;;;;;5093061;28;20254;-59
2023/06/06 07:40:40;;;;;;;7.90;3.17;;;21.20;99.90;;;;;;5093337;28;20207;-59
2023/06/06 07:43:11;;;;;;;6.97;3.50;;;21.30;99.90;;;;;;5092913;28;20228;-59
2023/06/06 07:45:39;;;;;;;5.65;3.25;;;21.30;99.90;;;;;;5092730;28;20254;-59
2023/06/06 07:48:07;;;;;;;3.83;2.90;;;21.40;99.90;;;;;;5091936;28;20207;-59
2023/06/06 07:50:35;;;;;;;6.18;2.92;;;21.50;99.90;;;;;;5092411;28;20208;-59
2023/06/06 07:53:03;;;;;;;5.68;2.92;;;21.60;99.90;;;;;;5092422;28;20282;-59
2023/06/06 07:55:31;;;;;;;6.43;3.00;;;21.80;99.90;;;;;;5092704;28;20415;-59
2023/06/06 07:58:01;;;;;;;4.47;2.80;;;21.80;99.90;;;;;;5092809;28;20304;-59
2023/06/06 08:00:30;;;;;;;7.53;2.85;;;21.90;99.90;;;;;;5092052;28;20204;-59
2023/06/06 08:02:58;;;;;;;4.63;2.92;;;21.90;99.90;;;;;;5097201;28;20310;-59
2023/06/06 08:05:26;;;;;;;7.53;3.03;;;22.00;99.90;;;;;;5091085;28;20295;-59
2023/06/06 08:07:54;;;;;;;3.83;2.75;;;22.10;99.90;;;;;;5092477;28;20214;-59
2023/06/06 08:10:22;;;;;;;3.47;2.72;;;22.20;99.90;;;;;;5092457;28;20307;-59
2023/06/06 08:12:50;;;;;;;4.45;2.92;;;22.30;99.90;;;;;;5092548;28;20266;-59
2023/06/06 08:15:18;;;;;;;4.40;2.45;;;22.30;99.90;;;;;;5092056;28;20342;-59
2023/06/06 08:17:47;;;;;;;3.63;2.65;;;22.40;99.90;;;;;;5092282;28;20211;-59
2023/06/06 08:20:17;;;;;;;7.63;3.05;;;22.50;99.90;;;;;;5092560;28;20200;-59
2023/06/06 08:22:51;;;;;;;7.25;3.45;;;22.60;99.90;;;;;;5092215;28;20637;-59
2023/06/06 08:25:19;;;;;;;6.18;3.03;;;22.70;99.90;;;;;;5092115;28;20214;-59
2023/06/06 08:27:47;;;;;;;4.82;3.03;;;22.90;99.90;;;;;;5092029;28;20229;-59
2023/06/06 08:30:15;;;;;;;4.70;2.78;;;22.90;99.90;;;;;;5092166;28;20283;-59
2023/06/06 08:32:43;;;;;;;2.78;2.58;;;23.00;99.90;;;;;;5090800;28;20322;-60
2023/06/06 08:35:12;;;;;;;4.28;3.28;;;23.10;99.90;;;;;;5092089;28;20208;-59
2023/06/06 08:37:40;;;;;;;3.75;3.45;;;23.10;99.90;;;;;;5092014;28;20738;-59
2023/06/06 08:40:11;;;;;;;9.85;2.97;;;23.10;99.90;;;;;;5092118;28;20212;-60
2023/06/06 08:42:43;;;;;;;3.03;2.72;;;23.10;99.90;;;;;;5091765;28;20234;-60
2023/06/06 08:45:11;;;;;;;4.25;2.67;;;23.30;99.90;;;;;;5091953;28;20208;-59
2023/06/06 08:47:39;;;;;;;2.90;2.65;;;23.40;99.90;;;;;;5091957;28;20727;-59
2023/06/06 08:50:07;;;;;;;4.40;2.90;;;23.50;99.90;;;;;;5092093;28;20213;-60
2023/06/06 08:52:37;;;;;;;3.10;2.80;;;23.50;99.90;;;;;;5091049;28;20236;-59
2023/06/06 08:55:05;;;;;;;3.80;2.88;;;23.60;99.90;;;;;;5103284;28;20631;-59
2023/06/06 08:57:33;;;;;;;5.55;3.53;;;23.70;99.90;;;;;;5112306;28;20203;-59
2023/06/06 09:00:10;;;;;;;5.13;3.25;;;23.70;99.90;;;;;;5112459;28;20203;-59
2023/06/06 09:02:41;;;;;;;10.25;2.97;;;23.70;99.90;;;;;;5112112;28;20777;-59
2023/06/06 09:05:10;;;;;;;4.90;3.20;;;23.80;99.90;;;;;;5112906;28;20694;-59
2023/06/06 09:07:40;;;;;;;7.32;3.42;;;23.80;99.90;;;;;;5116325;28;20666;-59
2023/06/06 09:10:08;;;;;;;4.55;2.58;;;23.90;99.90;;;;;;5116406;28;20302;-60
2023/06/06 09:12:42;;;;;;;3.58;3.03;;;23.90;99.90;;;;;;5116156;28;20597;-60
2023/06/06 09:15:11;;;;;;;2.90;2.65;;;24.10;99.90;;;;;;5116122;28;20207;-60
2023/06/06 09:17:39;;;;;;;4.95;2.83;;;24.30;99.90;;;;;;5116338;28;20202;-60
2023/06/06 09:20:08;;;;;;;5.22;2.60;;;24.50;99.90;;;;;;5101397;28;20204;-60
2023/06/06 09:22:41;;;;;;;3.97;2.95;;;24.70;99.90;;;;;;5095895;28;20338;-60
2023/06/06 09:25:17;;;;;;;6.93;3.15;;;24.80;99.90;;;;;;5095617;28;20258;-60
2023/06/06 09:27:45;;;;;;;3.35;2.50;;;24.90;99.90;;;;;;5095689;28;20693;-60
2023/06/06 09:30:22;;;;;;;4.43;2.60;;;25.00;99.90;;;;;;5095680;28;20298;-60
2023/06/06 09:32:56;;;;;;;3.15;2.95;;;25.10;99.90;;;;;;5095313;28;20227;-59
2023/06/06 09:35:25;;;;;;;4.40;2.88;;;25.30;99.90;;;;;;5095243;28;20662;-60
2023/06/06 09:37:54;;;;;;;3.90;3.15;;;25.40;99.90;;;;;;5094299;28;20222;-60
2023/06/06 09:40:23;;;;;;;3.25;3.00;;;25.60;99.90;;;;;;5095391;28;20287;-60
2023/06/06 09:42:51;;;;;;;6.03;3.25;;;25.80;99.90;;;;;;5095327;28;20270;-60
2023/06/06 09:45:20;;;;;;;6.32;3.13;;;25.80;98.80;;;;;;5094725;28;20228;-59
2023/06/06 09:47:49;;;;;;;3.55;3.03;;;25.90;99.90;;;;;;5095346;28;20204;-60
2023/06/06 09:50:18;;;;;;;4.30;3.40;;;26.10;99.90;;;;;;5095124;28;20269;-60
2023/06/06 09:52:47;;;;;;;3.85;2.95;;;26.10;98.30;;;;;;5096023;28;20315;-60
2023/06/06 09:55:17;;;;;;;4.88;2.95;;;26.10;98.50;;;;;;5095774;28;20242;-60
2023/06/06 09:57:45;;;;;;;4.13;2.65;;;26.10;98.40;;;;;;5092072;28;20208;-60
2023/06/06 10:00:14;;;;;;;5.88;2.65;;;26.40;98.90;;;;;;5108990;28;20618;-60
2023/06/06 10:02:43;;;;;;;5.63;2.88;;;26.60;98.00;;;;;;5097747;28;20242;-60
2023/06/06 10:05:12;;;;;;;4.53;2.85;;;26.80;97.70;;;;;;5094434;28;20200;-60
2023/06/06 10:07:41;;;;;;;3.10;2.90;;;27.00;95.80;;;;;;5103197;28;20199;-60
2023/06/06 10:10:11;;;;;;;6.13;2.90;;;27.20;94.60;;;;;;5095172;28;20200;-60
2023/06/06 10:12:41;;;;;;;5.03;2.67;;;27.30;92.90;;;;;;5095179;28;20263;-60
2023/06/06 10:15:10;;;;;;;7.70;2.50;;;27.50;93.60;;;;;;5094851;28;20216;-59
2023/06/06 10:17:40;;;;;;;2.88;2.67;;;27.80;92.60;;;;;;5095001;28;20647;-60
2023/06/06 10:20:10;;;;;;;4.03;2.20;;;27.90;91.50;;;;;;5094920;28;20262;-60
2023/06/06 10:22:38;;;;;;;3.00;2.42;;;28.10;90.90;;;;;;5094912;28;20637;-60
2023/06/06 10:25:08;;;;;;;9.35;2.50;;;28.30;91.00;;;;;;5099068;28;20554;-60
2023/06/06 10:27:42;;;;;;;5.88;2.65;;;28.50;89.30;;;;;;5106598;28;20267;-60
2023/06/06 10:30:13;;;;;;;6.15;2.42;;;28.60;85.00;;;;;;5115248;28;20645;-60
2023/06/06 10:32:46;;;;;;;2.42;2.22;;;28.70;84.80;;;;;;5115085;28;20223;-60
2023/06/06 10:35:14;;;;;;;2.88;2.42;;;28.80;81.50;;;;;;5114596;28;20233;-60
2023/06/06 10:37:42;;;;;;;6.65;2.42;;;29.00;86.50;;;;;;5115216;28;20294;-60
2023/06/06 10:40:11;;;;;;;4.22;2.35;;;29.10;80.30;;;;;;5114780;28;20204;-60
2023/06/06 10:42:40;;;;;;;3.65;2.75;;;29.10;78.90;;;;;;5114378;28;20235;-60
2023/06/06 10:45:09;;;;;;;6.22;2.70;;;29.30;78.80;;;;;;5114423;28;20203;-60
2023/06/06 10:47:39;;;;;;;3.13;2.55;;;29.50;81.40;;;;;;5105626;28;20199;-60
2023/06/06 10:50:34;;;;;;;3.17;2.83;;;29.60;77.60;;;;;;5105821;28;20196;-60
2023/06/06 10:53:06;;;;;;;3.92;2.38;;;29.80;77.30;;;;;;5102309;28;20307;-60
2023/06/06 10:55:43;;;;;;;2.83;2.10;;;30.00;73.10;;;;;;5092769;28;20206;-60
2023/06/06 10:58:24;;;;;;;3.47;2.88;;;30.10;76.10;;;;;;5098130;28;20620;-60
2023/06/06 11:00:57;;;;;;;8.45;2.60;;;30.30;75.00;;;;;;5094906;28;20199;-60
2023/06/06 11:03:33;;;;;;;2.90;2.70;;;30.50;76.10;;;;;;5100006;28;20718;-60
2023/06/06 11:06:14;;;;;;;6.38;2.60;;;30.70;74.40;;;;;;5089283;28;20203;-60
2023/06/06 11:08:45;;;;;;;2.85;2.60;;;30.90;72.20;;;;;;5100986;28;20196;-60
2023/06/06 11:11:20;;;;;;;2.65;2.33;;;31.00;70.40;;;;;;5114001;28;20207;-60
2023/06/06 11:13:53;;;;;;;6.38;2.65;;;31.10;70.00;;;;;;5113946;28;20646;-59
2023/06/06 11:16:29;;;;;;;3.40;3.10;;;31.20;70.60;;;;;;5113215;28;20203;-61
2023/06/06 11:19:04;;;;;;;5.47;2.63;;;31.10;68.50;;;;;;5108577;28;20202;-61
2023/06/06 11:21:32;;;;;;;4.82;2.78;;;31.10;70.10;;;;;;5093123;28;20206;-61
2023/06/06 11:24:00;;;;;;;4.20;2.70;;;31.20;68.00;;;;;;5093608;28;20200;-61
2023/06/06 11:26:28;;;;;;;3.10;2.70;;;31.40;69.00;;;;;;5093146;28;20204;-61
2023/06/06 11:28:56;;;;;;;3.42;3.10;;;31.70;66.20;;;;;;5092363;28;20585;-61
2023/06/06 11:31:24;;;;;;;7.05;2.95;;;31.80;63.40;;;;;;5092895;28;20725;-61
2023/06/06 11:33:54;;;;;;;4.45;2.80;;;31.90;67.30;;;;;;5093101;28;20232;-61
2023/06/06 11:36:21;;;;;;;8.20;3.42;;;32.00;65.40;;;;;;5092761;28;20204;-61
2023/06/06 11:38:50;;;;;;;5.03;2.80;;;31.80;64.20;;;;;;5092965;28;20203;-61
2023/06/06 11:41:17;;;;;;;7.03;2.90;;;31.80;66.00;;;;;;5092899;28;20204;-61
2023/06/06 11:43:51;;;;;;;3.08;2.90;;;31.80;65.30;;;;;;5093015;28;20679;-59
2023/06/06 11:46:19;;;;;;;6.63;2.95;;;31.90;64.20;;;;;;5092413;28;20196;-57
2023/06/06 11:48:47;;;;;;;7.10;3.13;;;31.80;65.10;;;;;;5091613;28;20216;-59
2023/06/06 11:51:17;;;;;;;5.35;2.80;;;32.00;68.30;;;;;;5092272;28;20672;-59
2023/06/06 11:53:44;;;;;;;2.60;2.40;;;32.20;62.80;;;;;;5092833;28;20262;-60
2023/06/06 11:56:15;;;;;;;5.68;2.90;;;32.30;63.80;;;;;;5092494;28;20325;-60
2023/06/06 11:58:43;;;;;;;4.97;3.08;;;32.30;62.80;;;;;;5092506;28;20611;-60
2023/06/06 12:01:11;;;;;;;5.82;2.85;;;32.50;63.50;;;;;;5092844;28;20306;-60
2023/06/06 12:03:40;;;;;;;2.90;2.70;;;32.70;64.80;;;;;;5092481;28;20223;-59
2023/06/06 12:06:09;;;;;;;5.78;2.70;;;32.80;63.60;;;;;;5091993;28;20211;-59
2023/06/06 12:08:38;;;;;;;4.15;2.45;;;32.60;63.50;;;;;;5092524;28;20212;-59
2023/06/06 12:11:23;;;;;;;4.97;2.67;;;32.60;61.80;;;;;;5092120;28;20248;-58
2023/06/06 12:13:51;;;;;;;3.30;3.00;;;33.00;60.30;;;;;;5092239;28;20228;-60
2023/06/06 12:16:22;;;;;;;3.65;2.80;;;33.00;58.30;;;;;;5092052;28;20203;-59
2023/06/06 12:18:51;;;;;;;6.00;2.53;;;33.30;60.80;;;;;;5092312;28;20242;-58
2023/06/06 12:21:20;;;;;;;4.85;2.40;;;33.30;59.80;;;;;;5092033;28;20290;-60
2023/06/06 12:23:49;;;;;;;5.38;3.33;;;32.70;59.30;;;;;;5091925;28;20270;-60
2023/06/06 12:26:18;;;;;;;9.32;2.70;;;31.90;59.70;;;;;;5091578;28;20204;-59
2023/06/06 12:28:57;;;;;;;4.65;3.05;;;31.20;61.10;;;;;;5089816;28;20238;-58
2023/06/06 12:31:24;;;;;;;4.75;2.55;;;30.50;59.60;;;;;;5091283;28;20674;-59
2023/06/06 12:33:53;;;;;;;10.43;3.25;;;30.20;60.10;;;;;;5091758;28;20231;-59
2023/06/06 12:36:25;;;;;;;4.47;2.70;;;30.70;63.60;;;;;;5091396;28;20263;-60
2023/06/06 12:39:00;;;;;;;3.22;2.97;;;31.50;63.70;;;;;;5091919;28;20204;-59
2023/06/06 12:41:40;;;;;;;2.33;2.22;;;31.90;61.30;;;;;;5091845;28;20272;-59
2023/06/06 12:44:11;;;;;;;2.92;2.72;;;31.50;58.40;;;;;;5091586;28;20290;-59
2023/06/06 12:46:39;;;;;;;4.85;2.80;;;30.80;59.90;;;;;;5089998;28;20299;-61
2023/06/06 12:49:08;;;;;;;5.03;2.95;;;30.10;59.90;;;;;;5091668;28;20200;-61
2023/06/06 12:51:36;;;;;;;6.07;2.55;;;29.70;60.90;;;;;;5091426;28;20299;-60
2023/06/06 12:54:05;;;;;;;6.07;2.75;;;30.10;64.50;;;;;;5091892;28;20225;-60
2023/06/06 12:56:33;;;;;;;3.13;2.83;;;30.70;64.50;;;;;;5091318;28;20314;-59